sensor_id;sensor_type;location;lat;lon;timestamp;P1;durP1;ratioP1;P2;durP2;ratioP2
79640;SDS011;69115;49.904;14.390;2023-11-19T00:01:46;34.22;;;18.08;;
79640;SDS011;69115;49.904;14.390;2023-11-19T00:04:12;39.70;;;18.73;;
79640;SDS011;69115;49.904;14.390;2023-11-19T00:06:38;32.80;;;17.63;;
79640;SDS011;69115;49.904;14.390;2023-11-19T00:09:04;37.30;;;18.35;;
79640;SDS011;69115;49.904;14.390;2023-11-19T00:11:30;34.10;;;18.38;;
79640;SDS011;69115;49.904;14.390;2023-11-19T00:13:55;34.40;;;18.30;;
79640;SDS011;69115;49.904;14.390;2023-11-19T00:16:20;36.28;;;18.48;;
79640;SDS011;69115;49.904;14.390;2023-11-19T00:18:46;39.42;;;19.65;;
79640;SDS011;69115;49.904;14.390;2023-11-19T00:21:11;41.90;;;21.35;;
79640;SDS011;69115;49.904;14.390;2023-11-19T00:23:37;43.33;;;23.08;;
79640;SDS011;69115;49.904;14.390;2023-11-19T00:26:02;44.70;;;21.58;;
79640;SDS011;69115;49.904;14.390;2023-11-19T00:28:31;46.63;;;22.20;;
79640;SDS011;69115;49.904;14.390;2023-11-19T00:30:57;42.58;;;21.45;;
79640;SDS011;69115;49.904;14.390;2023-11-19T00:33:22;52.40;;;23.43;;
79640;SDS011;69115;49.904;14.390;2023-11-19T00:35:47;48.97;;;23.95;;
79640;SDS011;69115;49.904;14.390;2023-11-19T00:38:13;54.95;;;25.63;;
79640;SDS011;69115;49.904;14.390;2023-11-19T00:40:38;44.78;;;22.38;;
79640;SDS011;69115;49.904;14.390;2023-11-19T00:43:05;44.53;;;21.85;;
79640;SDS011;69115;49.904;14.390;2023-11-19T00:45:32;41.03;;;20.95;;
79640;SDS011;69115;49.904;14.390;2023-11-19T00:47:58;39.47;;;20.92;;
79640;SDS011;69115;49.904;14.390;2023-11-19T00:50:24;37.78;;;18.95;;
79640;SDS011;69115;49.904;14.390;2023-11-19T00:52:50;43.03;;;19.48;;
79640;SDS011;69115;49.904;14.390;2023-11-19T00:55:16;45.40;;;21.83;;
79640;SDS011;69115;49.904;14.390;2023-11-19T00:57:42;39.60;;;19.85;;
79640;SDS011;69115;49.904;14.390;2023-11-19T01:00:08;41.90;;;20.55;;
79640;SDS011;69115;49.904;14.390;2023-11-19T01:02:38;40.20;;;19.58;;
79640;SDS011;69115;49.904;14.390;2023-11-19T01:05:04;37.65;;;18.08;;
79640;SDS011;69115;49.904;14.390;2023-11-19T01:07:29;38.15;;;19.58;;
79640;SDS011;69115;49.904;14.390;2023-11-19T01:09:55;35.63;;;18.65;;
79640;SDS011;69115;49.904;14.390;2023-11-19T01:12:20;36.00;;;18.83;;
79640;SDS011;69115;49.904;14.390;2023-11-19T01:14:45;36.35;;;18.65;;
79640;SDS011;69115;49.904;14.390;2023-11-19T01:17:11;40.45;;;18.83;;
79640;SDS011;69115;49.904;14.390;2023-11-19T01:19:36;39.15;;;17.83;;
79640;SDS011;69115;49.904;14.390;2023-11-19T01:22:01;33.27;;;18.30;;
79640;SDS011;69115;49.904;14.390;2023-11-19T01:24:27;37.05;;;18.50;;
79640;SDS011;69115;49.904;14.390;2023-11-19T01:26:53;34.70;;;18.00;;
79640;SDS011;69115;49.904;14.390;2023-11-19T01:29:19;34.53;;;18.35;;
79640;SDS011;69115;49.904;14.390;2023-11-19T01:31:45;35.90;;;19.02;;
79640;SDS011;69115;49.904;14.390;2023-11-19T01:36:41;34.80;;;18.73;;
79640;SDS011;69115;49.904;14.390;2023-11-19T01:39:06;36.25;;;19.30;;
79640;SDS011;69115;49.904;14.390;2023-11-19T01:41:35;39.55;;;19.67;;
79640;SDS011;69115;49.904;14.390;2023-11-19T01:44:01;38.92;;;19.25;;
79640;SDS011;69115;49.904;14.390;2023-11-19T01:46:26;33.88;;;18.15;;
79640;SDS011;69115;49.904;14.390;2023-11-19T01:48:52;34.55;;;17.35;;
79640;SDS011;69115;49.904;14.390;2023-11-19T01:51:17;35.30;;;17.90;;
79640;SDS011;69115;49.904;14.390;2023-11-19T01:53:43;33.03;;;16.98;;
79640;SDS011;69115;49.904;14.390;2023-11-19T01:56:09;33.40;;;16.92;;
79640;SDS011;69115;49.904;14.390;2023-11-19T01:58:36;30.23;;;16.95;;
79640;SDS011;69115;49.904;14.390;2023-11-19T02:01:01;33.03;;;16.15;;
79640;SDS011;69115;49.904;14.390;2023-11-19T02:03:30;31.35;;;15.95;;
79640;SDS011;69115;49.904;14.390;2023-11-19T02:05:57;29.35;;;15.40;;
79640;SDS011;69115;49.904;14.390;2023-11-19T02:08:23;28.85;;;15.45;;
79640;SDS011;69115;49.904;14.390;2023-11-19T02:10:49;24.58;;;13.30;;
79640;SDS011;69115;49.904;14.390;2023-11-19T02:13:14;29.52;;;15.50;;
79640;SDS011;69115;49.904;14.390;2023-11-19T02:15:41;28.48;;;15.40;;
79640;SDS011;69115;49.904;14.390;2023-11-19T02:18:20;28.05;;;14.45;;
79640;SDS011;69115;49.904;14.390;2023-11-19T02:20:47;27.05;;;13.90;;
79640;SDS011;69115;49.904;14.390;2023-11-19T02:23:13;24.88;;;14.50;;
79640;SDS011;69115;49.904;14.390;2023-11-19T02:25:38;33.20;;;16.73;;
79640;SDS011;69115;49.904;14.390;2023-11-19T02:28:05;33.10;;;17.70;;
79640;SDS011;69115;49.904;14.390;2023-11-19T02:30:31;31.20;;;16.33;;
79640;SDS011;69115;49.904;14.390;2023-11-19T02:32:57;28.98;;;15.68;;
79640;SDS011;69115;49.904;14.390;2023-11-19T02:35:26;35.08;;;17.23;;
79640;SDS011;69115;49.904;14.390;2023-11-19T02:37:52;31.38;;;16.55;;
79640;SDS011;69115;49.904;14.390;2023-11-19T02:40:17;27.90;;;15.25;;
79640;SDS011;69115;49.904;14.390;2023-11-19T02:42:43;30.27;;;15.95;;
79640;SDS011;69115;49.904;14.390;2023-11-19T02:45:09;25.85;;;15.23;;
79640;SDS011;69115;49.904;14.390;2023-11-19T02:47:39;26.42;;;13.15;;
79640;SDS011;69115;49.904;14.390;2023-11-19T02:50:08;28.77;;;14.23;;
79640;SDS011;69115;49.904;14.390;2023-11-19T02:52:42;27.17;;;13.50;;
79640;SDS011;69115;49.904;14.390;2023-11-19T02:55:08;24.75;;;13.23;;
79640;SDS011;69115;49.904;14.390;2023-11-19T02:57:43;22.40;;;11.45;;
79640;SDS011;69115;49.904;14.390;2023-11-19T03:00:20;26.33;;;14.13;;
79640;SDS011;69115;49.904;14.390;2023-11-19T03:02:53;22.75;;;12.27;;
79640;SDS011;69115;49.904;14.390;2023-11-19T03:05:24;20.75;;;12.25;;
79640;SDS011;69115;49.904;14.390;2023-11-19T03:07:50;23.00;;;12.98;;
79640;SDS011;69115;49.904;14.390;2023-11-19T03:10:16;20.90;;;12.73;;
79640;SDS011;69115;49.904;14.390;2023-11-19T03:12:43;21.92;;;12.02;;
79640;SDS011;69115;49.904;14.390;2023-11-19T03:15:09;24.67;;;12.48;;
79640;SDS011;69115;49.904;14.390;2023-11-19T03:17:44;22.33;;;11.85;;
79640;SDS011;69115;49.904;14.390;2023-11-19T03:20:10;19.45;;;11.43;;
79640;SDS011;69115;49.904;14.390;2023-11-19T03:22:45;21.23;;;11.82;;
79640;SDS011;69115;49.904;14.390;2023-11-19T03:25:11;23.42;;;12.15;;
79640;SDS011;69115;49.904;14.390;2023-11-19T03:27:37;21.88;;;11.50;;
79640;SDS011;69115;49.904;14.390;2023-11-19T03:30:04;21.48;;;11.98;;
79640;SDS011;69115;49.904;14.390;2023-11-19T03:32:31;20.48;;;11.82;;
79640;SDS011;69115;49.904;14.390;2023-11-19T03:34:57;23.27;;;11.90;;
79640;SDS011;69115;49.904;14.390;2023-11-19T03:37:23;20.48;;;11.25;;
79640;SDS011;69115;49.904;14.390;2023-11-19T03:39:48;22.83;;;13.20;;
79640;SDS011;69115;49.904;14.390;2023-11-19T03:42:14;23.90;;;13.88;;
79640;SDS011;69115;49.904;14.390;2023-11-19T03:44:39;23.08;;;12.15;;
79640;SDS011;69115;49.904;14.390;2023-11-19T03:47:05;19.98;;;12.02;;
79640;SDS011;69115;49.904;14.390;2023-11-19T03:49:31;19.75;;;11.00;;
79640;SDS011;69115;49.904;14.390;2023-11-19T03:51:57;19.52;;;11.50;;
79640;SDS011;69115;49.904;14.390;2023-11-19T03:54:22;22.58;;;11.57;;
79640;SDS011;69115;49.904;14.390;2023-11-19T03:56:48;18.77;;;11.88;;
79640;SDS011;69115;49.904;14.390;2023-11-19T03:59:14;19.20;;;11.45;;
79640;SDS011;69115;49.904;14.390;2023-11-19T04:01:40;21.25;;;11.45;;
79640;SDS011;69115;49.904;14.390;2023-11-19T04:04:05;20.98;;;11.85;;
79640;SDS011;69115;49.904;14.390;2023-11-19T04:06:31;18.27;;;10.88;;
79640;SDS011;69115;49.904;14.390;2023-11-19T04:08:56;19.15;;;11.05;;
79640;SDS011;69115;49.904;14.390;2023-11-19T04:11:22;16.80;;;10.73;;
79640;SDS011;69115;49.904;14.390;2023-11-19T04:13:47;17.10;;;10.30;;
79640;SDS011;69115;49.904;14.390;2023-11-19T04:16:12;18.98;;;10.93;;
79640;SDS011;69115;49.904;14.390;2023-11-19T04:18:39;15.02;;;9.57;;
79640;SDS011;69115;49.904;14.390;2023-11-19T04:21:08;15.63;;;8.73;;
79640;SDS011;69115;49.904;14.390;2023-11-19T04:23:33;15.57;;;9.70;;
79640;SDS011;69115;49.904;14.390;2023-11-19T04:26:02;16.88;;;9.63;;
79640;SDS011;69115;49.904;14.390;2023-11-19T04:28:29;18.23;;;10.32;;
79640;SDS011;69115;49.904;14.390;2023-11-19T04:30:55;16.27;;;9.73;;
79640;SDS011;69115;49.904;14.390;2023-11-19T04:33:20;18.03;;;9.87;;
79640;SDS011;69115;49.904;14.390;2023-11-19T04:35:45;15.93;;;9.73;;
79640;SDS011;69115;49.904;14.390;2023-11-19T04:38:11;15.00;;;9.73;;
79640;SDS011;69115;49.904;14.390;2023-11-19T04:40:36;16.30;;;9.85;;
79640;SDS011;69115;49.904;14.390;2023-11-19T04:43:01;16.40;;;9.70;;
79640;SDS011;69115;49.904;14.390;2023-11-19T04:45:27;16.95;;;9.65;;
79640;SDS011;69115;49.904;14.390;2023-11-19T04:47:52;17.42;;;10.25;;
79640;SDS011;69115;49.904;14.390;2023-11-19T04:50:17;19.15;;;10.95;;
79640;SDS011;69115;49.904;14.390;2023-11-19T04:52:43;21.35;;;11.63;;
79640;SDS011;69115;49.904;14.390;2023-11-19T04:55:10;18.02;;;10.75;;
79640;SDS011;69115;49.904;14.390;2023-11-19T04:57:39;16.35;;;10.40;;
79640;SDS011;69115;49.904;14.390;2023-11-19T05:00:05;16.40;;;9.63;;
79640;SDS011;69115;49.904;14.390;2023-11-19T05:02:32;16.23;;;10.27;;
79640;SDS011;69115;49.904;14.390;2023-11-19T05:04:57;17.20;;;9.40;;
79640;SDS011;69115;49.904;14.390;2023-11-19T05:07:22;17.77;;;10.27;;
79640;SDS011;69115;49.904;14.390;2023-11-19T05:09:48;17.15;;;10.13;;
79640;SDS011;69115;49.904;14.390;2023-11-19T05:12:13;18.50;;;10.27;;
79640;SDS011;69115;49.904;14.390;2023-11-19T05:14:38;19.23;;;10.63;;
79640;SDS011;69115;49.904;14.390;2023-11-19T05:17:04;17.60;;;10.02;;
79640;SDS011;69115;49.904;14.390;2023-11-19T05:19:29;21.25;;;11.00;;
79640;SDS011;69115;49.904;14.390;2023-11-19T05:21:55;17.45;;;10.60;;
79640;SDS011;69115;49.904;14.390;2023-11-19T05:24:20;19.08;;;10.00;;
79640;SDS011;69115;49.904;14.390;2023-11-19T05:26:45;20.33;;;10.57;;
79640;SDS011;69115;49.904;14.390;2023-11-19T05:29:12;18.63;;;10.50;;
79640;SDS011;69115;49.904;14.390;2023-11-19T05:31:40;17.98;;;10.13;;
79640;SDS011;69115;49.904;14.390;2023-11-19T05:34:05;18.10;;;10.55;;
79640;SDS011;69115;49.904;14.390;2023-11-19T05:36:32;16.38;;;9.52;;
79640;SDS011;69115;49.904;14.390;2023-11-19T05:38:58;18.08;;;9.93;;
79640;SDS011;69115;49.904;14.390;2023-11-19T05:41:23;20.35;;;11.13;;
79640;SDS011;69115;49.904;14.390;2023-11-19T05:43:49;18.77;;;11.02;;
79640;SDS011;69115;49.904;14.390;2023-11-19T05:46:14;18.23;;;10.45;;
79640;SDS011;69115;49.904;14.390;2023-11-19T05:48:39;17.20;;;9.43;;
79640;SDS011;69115;49.904;14.390;2023-11-19T05:51:05;19.48;;;10.73;;
79640;SDS011;69115;49.904;14.390;2023-11-19T05:53:31;15.65;;;9.68;;
79640;SDS011;69115;49.904;14.390;2023-11-19T05:55:56;18.73;;;10.35;;
79640;SDS011;69115;49.904;14.390;2023-11-19T05:58:25;19.92;;;10.50;;
79640;SDS011;69115;49.904;14.390;2023-11-19T06:00:53;16.35;;;9.82;;
79640;SDS011;69115;49.904;14.390;2023-11-19T06:03:18;16.90;;;9.98;;
79640;SDS011;69115;49.904;14.390;2023-11-19T06:05:44;20.10;;;10.75;;
79640;SDS011;69115;49.904;14.390;2023-11-19T06:08:11;15.73;;;9.98;;
79640;SDS011;69115;49.904;14.390;2023-11-19T06:10:38;14.88;;;8.45;;
79640;SDS011;69115;49.904;14.390;2023-11-19T06:13:05;13.70;;;7.75;;
79640;SDS011;69115;49.904;14.390;2023-11-19T06:15:31;13.18;;;7.50;;
79640;SDS011;69115;49.904;14.390;2023-11-19T06:17:58;11.13;;;6.90;;
79640;SDS011;69115;49.904;14.390;2023-11-19T06:20:24;13.32;;;8.57;;
79640;SDS011;69115;49.904;14.390;2023-11-19T06:22:50;14.45;;;8.38;;
79640;SDS011;69115;49.904;14.390;2023-11-19T06:25:15;14.60;;;8.13;;
79640;SDS011;69115;49.904;14.390;2023-11-19T06:27:41;16.02;;;8.27;;
79640;SDS011;69115;49.904;14.390;2023-11-19T06:30:07;13.30;;;7.18;;
79640;SDS011;69115;49.904;14.390;2023-11-19T06:32:33;11.70;;;6.80;;
79640;SDS011;69115;49.904;14.390;2023-11-19T06:34:59;11.48;;;7.22;;
79640;SDS011;69115;49.904;14.390;2023-11-19T06:37:24;11.57;;;6.95;;
79640;SDS011;69115;49.904;14.390;2023-11-19T06:39:49;12.55;;;6.88;;
79640;SDS011;69115;49.904;14.390;2023-11-19T06:42:15;10.43;;;6.15;;
79640;SDS011;69115;49.904;14.390;2023-11-19T06:44:40;10.77;;;6.22;;
79640;SDS011;69115;49.904;14.390;2023-11-19T06:47:06;12.85;;;7.07;;
79640;SDS011;69115;49.904;14.390;2023-11-19T06:49:31;11.43;;;6.63;;
79640;SDS011;69115;49.904;14.390;2023-11-19T06:51:57;12.95;;;7.05;;
79640;SDS011;69115;49.904;14.390;2023-11-19T06:54:22;13.20;;;7.95;;
79640;SDS011;69115;49.904;14.390;2023-11-19T06:56:48;11.77;;;6.70;;
79640;SDS011;69115;49.904;14.390;2023-11-19T06:59:13;11.07;;;6.70;;
79640;SDS011;69115;49.904;14.390;2023-11-19T07:01:39;11.70;;;6.90;;
79640;SDS011;69115;49.904;14.390;2023-11-19T07:04:04;12.23;;;7.15;;
79640;SDS011;69115;49.904;14.390;2023-11-19T07:06:34;10.93;;;6.65;;
79640;SDS011;69115;49.904;14.390;2023-11-19T07:09:02;14.75;;;7.80;;
79640;SDS011;69115;49.904;14.390;2023-11-19T07:11:35;13.30;;;7.07;;
79640;SDS011;69115;49.904;14.390;2023-11-19T07:14:01;11.00;;;6.43;;
79640;SDS011;69115;49.904;14.390;2023-11-19T07:16:27;9.23;;;5.93;;
79640;SDS011;69115;49.904;14.390;2023-11-19T07:18:52;10.48;;;6.47;;
79640;SDS011;69115;49.904;14.390;2023-11-19T07:21:17;11.20;;;7.00;;
79640;SDS011;69115;49.904;14.390;2023-11-19T07:23:43;9.75;;;6.53;;
79640;SDS011;69115;49.904;14.390;2023-11-19T07:26:08;10.15;;;6.35;;
79640;SDS011;69115;49.904;14.390;2023-11-19T07:28:34;10.23;;;6.43;;
79640;SDS011;69115;49.904;14.390;2023-11-19T07:30:59;10.15;;;6.57;;
79640;SDS011;69115;49.904;14.390;2023-11-19T07:33:25;10.85;;;6.40;;
79640;SDS011;69115;49.904;14.390;2023-11-19T07:35:50;12.55;;;7.32;;
79640;SDS011;69115;49.904;14.390;2023-11-19T07:38:16;10.07;;;6.82;;
79640;SDS011;69115;49.904;14.390;2023-11-19T07:40:41;9.98;;;6.60;;
79640;SDS011;69115;49.904;14.390;2023-11-19T07:43:06;9.17;;;6.20;;
79640;SDS011;69115;49.904;14.390;2023-11-19T07:45:32;10.20;;;6.55;;
79640;SDS011;69115;49.904;14.390;2023-11-19T07:47:57;11.55;;;6.40;;
79640;SDS011;69115;49.904;14.390;2023-11-19T07:50:23;10.80;;;6.70;;
79640;SDS011;69115;49.904;14.390;2023-11-19T07:52:49;10.13;;;6.40;;
79640;SDS011;69115;49.904;14.390;2023-11-19T07:55:15;9.77;;;6.35;;
79640;SDS011;69115;49.904;14.390;2023-11-19T07:57:40;12.27;;;6.53;;
79640;SDS011;69115;49.904;14.390;2023-11-19T08:00:06;10.73;;;6.70;;
79640;SDS011;69115;49.904;14.390;2023-11-19T08:02:32;10.63;;;6.97;;
79640;SDS011;69115;49.904;14.390;2023-11-19T08:04:58;11.63;;;6.97;;
79640;SDS011;69115;49.904;14.390;2023-11-19T08:07:23;14.45;;;8.18;;
79640;SDS011;69115;49.904;14.390;2023-11-19T08:09:48;12.93;;;7.45;;
79640;SDS011;69115;49.904;14.390;2023-11-19T08:12:14;11.82;;;7.40;;
79640;SDS011;69115;49.904;14.390;2023-11-19T08:14:41;13.02;;;7.70;;
79640;SDS011;69115;49.904;14.390;2023-11-19T08:17:06;12.75;;;7.88;;
79640;SDS011;69115;49.904;14.390;2023-11-19T08:19:32;13.27;;;7.75;;
79640;SDS011;69115;49.904;14.390;2023-11-19T08:21:57;13.23;;;7.60;;
79640;SDS011;69115;49.904;14.390;2023-11-19T08:24:22;12.50;;;7.32;;
79640;SDS011;69115;49.904;14.390;2023-11-19T08:26:48;13.05;;;7.95;;
79640;SDS011;69115;49.904;14.390;2023-11-19T08:29:13;12.57;;;8.45;;
79640;SDS011;69115;49.904;14.390;2023-11-19T08:31:39;15.73;;;8.57;;
79640;SDS011;69115;49.904;14.390;2023-11-19T08:34:04;14.93;;;8.63;;
79640;SDS011;69115;49.904;14.390;2023-11-19T08:36:33;14.60;;;8.13;;
79640;SDS011;69115;49.904;14.390;2023-11-19T08:38:59;17.55;;;11.40;;
79640;SDS011;69115;49.904;14.390;2023-11-19T08:41:24;17.58;;;10.35;;
79640;SDS011;69115;49.904;14.390;2023-11-19T08:43:50;16.90;;;10.68;;
79640;SDS011;69115;49.904;14.390;2023-11-19T08:46:16;24.33;;;13.90;;
79640;SDS011;69115;49.904;14.390;2023-11-19T08:48:42;18.23;;;11.00;;
79640;SDS011;69115;49.904;14.390;2023-11-19T08:51:07;18.70;;;9.73;;
79640;SDS011;69115;49.904;14.390;2023-11-19T08:53:33;15.55;;;9.35;;
79640;SDS011;69115;49.904;14.390;2023-11-19T08:55:58;15.50;;;9.95;;
79640;SDS011;69115;49.904;14.390;2023-11-19T08:58:25;15.27;;;9.60;;
79640;SDS011;69115;49.904;14.390;2023-11-19T09:00:50;16.02;;;9.02;;
79640;SDS011;69115;49.904;14.390;2023-11-19T09:03:16;13.50;;;8.55;;
79640;SDS011;69115;49.904;14.390;2023-11-19T09:05:41;14.00;;;7.95;;
79640;SDS011;69115;49.904;14.390;2023-11-19T09:08:07;12.50;;;7.68;;
79640;SDS011;69115;49.904;14.390;2023-11-19T09:10:32;12.55;;;7.95;;
79640;SDS011;69115;49.904;14.390;2023-11-19T09:12:57;13.18;;;8.20;;
79640;SDS011;69115;49.904;14.390;2023-11-19T09:15:23;14.60;;;8.65;;
79640;SDS011;69115;49.904;14.390;2023-11-19T09:17:49;12.90;;;7.80;;
79640;SDS011;69115;49.904;14.390;2023-11-19T09:20:14;12.05;;;7.70;;
79640;SDS011;69115;49.904;14.390;2023-11-19T09:22:41;14.50;;;8.32;;
79640;SDS011;69115;49.904;14.390;2023-11-19T09:25:07;12.48;;;7.43;;
79640;SDS011;69115;49.904;14.390;2023-11-19T09:27:32;16.52;;;8.70;;
79640;SDS011;69115;49.904;14.390;2023-11-19T09:29:58;13.00;;;7.97;;
79640;SDS011;69115;49.904;14.390;2023-11-19T09:32:24;16.30;;;7.97;;
79640;SDS011;69115;49.904;14.390;2023-11-19T09:34:50;15.50;;;8.77;;
79640;SDS011;69115;49.904;14.390;2023-11-19T09:37:16;23.63;;;15.55;;
79640;SDS011;69115;49.904;14.390;2023-11-19T09:39:41;15.13;;;9.13;;
79640;SDS011;69115;49.904;14.390;2023-11-19T09:42:09;15.13;;;9.20;;
79640;SDS011;69115;49.904;14.390;2023-11-19T09:44:38;15.43;;;9.70;;
79640;SDS011;69115;49.904;14.390;2023-11-19T09:47:04;14.18;;;8.32;;
79640;SDS011;69115;49.904;14.390;2023-11-19T09:49:30;16.05;;;9.05;;
79640;SDS011;69115;49.904;14.390;2023-11-19T09:51:56;12.50;;;6.80;;
79640;SDS011;69115;49.904;14.390;2023-11-19T09:54:21;10.95;;;6.32;;
79640;SDS011;69115;49.904;14.390;2023-11-19T09:56:47;10.98;;;6.45;;
79640;SDS011;69115;49.904;14.390;2023-11-19T09:59:13;9.73;;;6.22;;
79640;SDS011;69115;49.904;14.390;2023-11-19T10:01:39;10.30;;;6.03;;
79640;SDS011;69115;49.904;14.390;2023-11-19T10:04:05;11.98;;;7.10;;
79640;SDS011;69115;49.904;14.390;2023-11-19T10:06:32;12.25;;;7.63;;
79640;SDS011;69115;49.904;14.390;2023-11-19T10:08:57;11.50;;;7.22;;
79640;SDS011;69115;49.904;14.390;2023-11-19T10:11:24;11.77;;;6.60;;
79640;SDS011;69115;49.904;14.390;2023-11-19T10:13:49;15.07;;;8.15;;
79640;SDS011;69115;49.904;14.390;2023-11-19T10:16:17;11.15;;;7.20;;
79640;SDS011;69115;49.904;14.390;2023-11-19T10:18:46;12.90;;;7.32;;
79640;SDS011;69115;49.904;14.390;2023-11-19T10:21:12;17.98;;;11.85;;
79640;SDS011;69115;49.904;14.390;2023-11-19T10:23:50;12.98;;;8.07;;
79640;SDS011;69115;49.904;14.390;2023-11-19T10:26:24;12.73;;;7.00;;
79640;SDS011;69115;49.904;14.390;2023-11-19T10:28:50;11.50;;;6.90;;
79640;SDS011;69115;49.904;14.390;2023-11-19T10:31:16;12.05;;;7.30;;
79640;SDS011;69115;49.904;14.390;2023-11-19T10:33:43;8.43;;;4.35;;
79640;SDS011;69115;49.904;14.390;2023-11-19T10:36:10;9.05;;;4.57;;
79640;SDS011;69115;49.904;14.390;2023-11-19T10:38:39;5.78;;;3.53;;
79640;SDS011;69115;49.904;14.390;2023-11-19T10:41:05;6.78;;;3.90;;
79640;SDS011;69115;49.904;14.390;2023-11-19T10:43:31;5.05;;;3.28;;
79640;SDS011;69115;49.904;14.390;2023-11-19T10:46:10;4.22;;;2.78;;
79640;SDS011;69115;49.904;14.390;2023-11-19T10:48:36;4.35;;;2.80;;
79640;SDS011;69115;49.904;14.390;2023-11-19T10:51:02;4.90;;;2.95;;
79640;SDS011;69115;49.904;14.390;2023-11-19T10:53:33;6.35;;;3.05;;
79640;SDS011;69115;49.904;14.390;2023-11-19T10:56:01;4.45;;;2.80;;
79640;SDS011;69115;49.904;14.390;2023-11-19T10:58:27;5.25;;;2.88;;
79640;SDS011;69115;49.904;14.390;2023-11-19T11:01:01;5.60;;;2.50;;
79640;SDS011;69115;49.904;14.390;2023-11-19T11:03:31;6.68;;;2.92;;
79640;SDS011;69115;49.904;14.390;2023-11-19T11:06:01;4.53;;;2.53;;
79640;SDS011;69115;49.904;14.390;2023-11-19T11:08:28;4.15;;;2.20;;
79640;SDS011;69115;49.904;14.390;2023-11-19T11:10:55;4.38;;;2.30;;
79640;SDS011;69115;49.904;14.390;2023-11-19T11:13:22;3.30;;;2.00;;
79640;SDS011;69115;49.904;14.390;2023-11-19T11:15:56;4.30;;;2.22;;
79640;SDS011;69115;49.904;14.390;2023-11-19T11:18:25;3.60;;;2.30;;
79640;SDS011;69115;49.904;14.390;2023-11-19T11:29:05;3.78;;;1.98;;
79640;SDS011;69115;49.904;14.390;2023-11-19T11:36:54;4.10;;;2.53;;
79640;SDS011;69115;49.904;14.390;2023-11-19T11:39:35;5.57;;;2.30;;
79640;SDS011;69115;49.904;14.390;2023-11-19T11:50:09;3.85;;;2.28;;
79640;SDS011;69115;49.904;14.390;2023-11-19T11:55:37;6.90;;;2.65;;
79640;SDS011;69115;49.904;14.390;2023-11-19T11:58:27;3.08;;;1.80;;
79640;SDS011;69115;49.904;14.390;2023-11-19T12:00:58;3.80;;;1.98;;
79640;SDS011;69115;49.904;14.390;2023-11-19T12:03:26;2.47;;;1.70;;
79640;SDS011;69115;49.904;14.390;2023-11-19T12:05:52;4.78;;;2.30;;
79640;SDS011;69115;49.904;14.390;2023-11-19T12:08:18;3.53;;;2.00;;
79640;SDS011;69115;49.904;14.390;2023-11-19T12:10:52;5.40;;;1.83;;
79640;SDS011;69115;49.904;14.390;2023-11-19T12:13:19;3.47;;;1.90;;
79640;SDS011;69115;49.904;14.390;2023-11-19T12:18:30;4.45;;;2.20;;
79640;SDS011;69115;49.904;14.390;2023-11-19T12:20:57;2.75;;;1.65;;
79640;SDS011;69115;49.904;14.390;2023-11-19T12:23:25;6.03;;;1.90;;
79640;SDS011;69115;49.904;14.390;2023-11-19T12:25:51;4.60;;;2.00;;
79640;SDS011;69115;49.904;14.390;2023-11-19T12:28:17;4.35;;;2.55;;
79640;SDS011;69115;49.904;14.390;2023-11-19T12:30:43;4.13;;;2.28;;
79640;SDS011;69115;49.904;14.390;2023-11-19T12:33:12;4.25;;;2.17;;
79640;SDS011;69115;49.904;14.390;2023-11-19T12:35:41;5.20;;;2.40;;
79640;SDS011;69115;49.904;14.390;2023-11-19T12:38:08;4.25;;;2.35;;
79640;SDS011;69115;49.904;14.390;2023-11-19T12:40:33;4.60;;;2.28;;
79640;SDS011;69115;49.904;14.390;2023-11-19T12:42:59;6.07;;;2.40;;
79640;SDS011;69115;49.904;14.390;2023-11-19T12:45:34;2.97;;;1.67;;
79640;SDS011;69115;49.904;14.390;2023-11-19T12:48:07;4.53;;;2.00;;
79640;SDS011;69115;49.904;14.390;2023-11-19T12:50:56;3.28;;;1.90;;
79640;SDS011;69115;49.904;14.390;2023-11-19T12:53:23;4.00;;;1.83;;
79640;SDS011;69115;49.904;14.390;2023-11-19T12:55:52;3.58;;;2.10;;
79640;SDS011;69115;49.904;14.390;2023-11-19T12:58:28;3.13;;;1.73;;
79640;SDS011;69115;49.904;14.390;2023-11-19T13:01:05;3.67;;;1.90;;
79640;SDS011;69115;49.904;14.390;2023-11-19T13:03:32;5.68;;;2.35;;
79640;SDS011;69115;49.904;14.390;2023-11-19T13:06:01;4.60;;;2.47;;
79640;SDS011;69115;49.904;14.390;2023-11-19T13:08:28;4.47;;;2.60;;
79640;SDS011;69115;49.904;14.390;2023-11-19T13:10:54;4.88;;;2.30;;
79640;SDS011;69115;49.904;14.390;2023-11-19T13:13:19;6.35;;;3.55;;
79640;SDS011;69115;49.904;14.390;2023-11-19T13:15:45;6.97;;;3.20;;
79640;SDS011;69115;49.904;14.390;2023-11-19T13:18:11;4.05;;;2.83;;
79640;SDS011;69115;49.904;14.390;2023-11-19T13:20:38;6.13;;;2.97;;
79640;SDS011;69115;49.904;14.390;2023-11-19T13:23:04;4.43;;;2.42;;
79640;SDS011;69115;49.904;14.390;2023-11-19T13:25:30;4.05;;;2.20;;
79640;SDS011;69115;49.904;14.390;2023-11-19T13:27:57;6.57;;;3.35;;
79640;SDS011;69115;49.904;14.390;2023-11-19T13:30:23;5.10;;;2.55;;
79640;SDS011;69115;49.904;14.390;2023-11-19T13:32:49;4.25;;;2.67;;
79640;SDS011;69115;49.904;14.390;2023-11-19T13:35:15;5.60;;;3.30;;
79640;SDS011;69115;49.904;14.390;2023-11-19T13:37:40;6.90;;;3.58;;
79640;SDS011;69115;49.904;14.390;2023-11-19T13:40:06;6.60;;;3.80;;
79640;SDS011;69115;49.904;14.390;2023-11-19T13:42:33;7.03;;;4.07;;
79640;SDS011;69115;49.904;14.390;2023-11-19T13:44:58;6.38;;;3.80;;
79640;SDS011;69115;49.904;14.390;2023-11-19T13:47:23;8.73;;;5.10;;
79640;SDS011;69115;49.904;14.390;2023-11-19T13:49:49;9.20;;;4.88;;
79640;SDS011;69115;49.904;14.390;2023-11-19T13:52:15;6.80;;;3.80;;
79640;SDS011;69115;49.904;14.390;2023-11-19T13:54:40;4.05;;;2.70;;
79640;SDS011;69115;49.904;14.390;2023-11-19T13:57:06;4.60;;;2.20;;
79640;SDS011;69115;49.904;14.390;2023-11-19T13:59:31;3.58;;;1.90;;
79640;SDS011;69115;49.904;14.390;2023-11-19T14:02:00;3.83;;;2.00;;
79640;SDS011;69115;49.904;14.390;2023-11-19T14:04:25;5.05;;;2.83;;
79640;SDS011;69115;49.904;14.390;2023-11-19T14:06:51;4.15;;;2.50;;
79640;SDS011;69115;49.904;14.390;2023-11-19T14:09:17;4.72;;;2.30;;
79640;SDS011;69115;49.904;14.390;2023-11-19T14:11:42;4.32;;;2.10;;
79640;SDS011;69115;49.904;14.390;2023-11-19T14:14:08;2.95;;;1.90;;
79640;SDS011;69115;49.904;14.390;2023-11-19T14:16:34;5.30;;;1.80;;
79640;SDS011;69115;49.904;14.390;2023-11-19T14:19:00;3.17;;;1.75;;
79640;SDS011;69115;49.904;14.390;2023-11-19T14:21:26;4.20;;;1.77;;
79640;SDS011;69115;49.904;14.390;2023-11-19T14:23:52;4.30;;;1.75;;
79640;SDS011;69115;49.904;14.390;2023-11-19T14:26:18;4.72;;;2.30;;
79640;SDS011;69115;49.904;14.390;2023-11-19T14:28:52;2.88;;;1.95;;
79640;SDS011;69115;49.904;14.390;2023-11-19T14:31:19;5.00;;;3.30;;
79640;SDS011;69115;49.904;14.390;2023-11-19T14:33:46;4.63;;;2.50;;
79640;SDS011;69115;49.904;14.390;2023-11-19T14:36:13;4.97;;;2.70;;
79640;SDS011;69115;49.904;14.390;2023-11-19T14:38:38;6.30;;;3.67;;
79640;SDS011;69115;49.904;14.390;2023-11-19T14:41:05;6.25;;;3.50;;
79640;SDS011;69115;49.904;14.390;2023-11-19T14:43:32;7.72;;;4.07;;
79640;SDS011;69115;49.904;14.390;2023-11-19T14:45:58;7.05;;;3.85;;
79640;SDS011;69115;49.904;14.390;2023-11-19T14:48:25;5.88;;;4.15;;